36NC weather

Greensboro North Airport
Greensboro, North Carolina, United States

Public forecast

Using degrees Fahrenheit for public forecast. Weather courtesy of forecast.io.

Closest aviation weather report (METAR) to Greensboro North Airport

Closest report is Piedmont Triad International Airport, 9.5 nm (17.5 km) S. Retrieved 2019/11/18 12:01 UTC (43 minutes ago):

KGSO 181201Z 02005KT 4SM BR OVC004 04/03 A2986

Closest aviation forecast (TAF) to Greensboro North Airport

Closest forecast is Piedmont Triad International Airport, 9.5 nm (17.5 km) S. Retrieved 2019/11/18 12:36 UTC (8 minutes ago):

TAF KGSO 181132Z 1812/1912 04005KT P6SM OVC005 FM181600 VRB03KT 1 1/2SM -RA BR OVC004 FM182100 VRB03KT P6SM BKN015 TEMPO 1823/1903 SCT015 FM190300 VRB02KT 4SM BR BKN008 FM190800 00000KT 2SM BR BKN003 FM191000 00000KT 1/2SM FG VV002